»·PEaware :: SAS186 KSAN-KLAS

SAS186 :: KSAN-KLAS

FLIGHT INFORMATION

Flight Status: Arrived
Operator:
SAS
More flights by this operator :: More flights under this callsign
Pilot: Josh G. (4619)
Aircraft: BOEING 737-800
(B738)
More flights by this aircraft type
Origin: KSAN San Diego Intl-Lindbergh
United States
Destination: KLAS McCarran Intl
United States
More flights between these airports :: More routes between these airports
Route: PEBLE6 SXC LAX DAG KEPEC3
File this flight plan on PilotEdge
Remarks: Twitch Stream, Evening Mr. Smith.
Altitude:
(Current/Filed)
290ft
Speed:
(Current/Filed)
450kts
Departed: 22-Jan-16 09:40 PM
Arrived: 22-Jan-16 10:30 PM
Distance/Time
Traveled:
225nm/0:50
Distance/Time
To Go:
Arrived

Flight Plot

Page will automatically refresh every two minutes.


Map Options




Map Legend


Flown Route
Filed Route
Departure Airport
Arrival Airport
Navaid (VOR, NDB)
Fix

Horizontal Profiles

Position Reports

Time Latitude Longitude Heading Altitude Ground
Speed
22-Jan-16 21:09 32.732893 -117.201704 80 23ft 0kts
22-Jan-16 21:10 32.732893 -117.201704 80 23ft 0kts
22-Jan-16 21:11 32.732893 -117.201704 80 23ft 0kts
22-Jan-16 21:12 32.732893 -117.201704 80 23ft 0kts
22-Jan-16 21:13 32.732893 -117.201704 80 23ft 0kts
22-Jan-16 21:14 32.732893 -117.201704 80 23ft 0kts
22-Jan-16 21:15 32.732893 -117.201704 80 23ft 0kts
22-Jan-16 21:16 32.732893 -117.201704 80 23ft 0kts
22-Jan-16 21:17 32.732893 -117.201704 80 23ft 0kts
22-Jan-16 21:18 32.732893 -117.201704 80 23ft 0kts
22-Jan-16 21:19 32.732893 -117.201704 80 23ft 0kts
22-Jan-16 21:20 32.732825 -117.202214 80 23ft 2kts
22-Jan-16 21:21 32.732792 -117.202463 80 23ft 0kts
22-Jan-16 21:22 32.732792 -117.202463 80 23ft 0kts
22-Jan-16 21:23 32.732792 -117.202463 80 23ft 0kts
22-Jan-16 21:24 32.732792 -117.202463 80 23ft 0kts
22-Jan-16 21:25 32.734391 -117.202635 18 23ft 0kts
22-Jan-16 21:26 32.734393 -117.202634 18 23ft 0kts
22-Jan-16 21:27 32.735306 -117.201734 84 23ft 15kts
22-Jan-16 21:28 32.733721 -117.194582 105 23ft 29kts
22-Jan-16 21:29 32.731016 -117.183476 105 23ft 30kts
22-Jan-16 21:30 32.729490 -117.176686 61 23ft 0kts
22-Jan-16 21:31 32.729491 -117.176684 61 23ft 0kts
22-Jan-16 21:32 32.729492 -117.176682 61 23ft 0kts
22-Jan-16 21:33 32.729493 -117.176680 61 23ft 0kts
22-Jan-16 21:34 32.730098 -117.175958 343 23ft 7kts
22-Jan-16 21:35 32.737985 -117.204958 298 1469ft 169kts
22-Jan-16 21:36 32.767899 -117.254667 305 5184ft 243kts
22-Jan-16 21:37 32.810730 -117.321087 305 9426ft 272kts
22-Jan-16 21:38 32.861064 -117.396290 305 13076ft 321kts
22-Jan-16 21:39 32.936049 -117.464315 325 16817ft 356kts
22-Jan-16 21:40 33.003795 -117.550505 303 20379ft 364kts
22-Jan-16 21:41 33.063773 -117.650909 303 23486ft 378kts
22-Jan-16 21:42 33.138717 -117.740493 337 26112ft 407kts
22-Jan-16 21:43 33.252781 -117.711648 22 28387ft 450kts
22-Jan-16 21:44 33.364021 -117.639554 23 29287ft 452kts
22-Jan-16 21:45 33.474118 -117.567762 23 29290ft 449kts
22-Jan-16 21:46 33.584132 -117.496047 23 29288ft 449kts
22-Jan-16 21:47 33.693758 -117.424386 23 29282ft 449kts
22-Jan-16 21:48 33.803663 -117.352254 23 29280ft 449kts
22-Jan-16 21:49 33.913502 -117.279929 23 29280ft 449kts
22-Jan-16 21:50 34.023346 -117.207373 23 29287ft 453kts
22-Jan-16 21:51 34.140495 -117.193906 342 29293ft 426kts
22-Jan-16 21:52 34.256799 -117.223498 342 29295ft 427kts
22-Jan-16 21:53 34.373336 -117.253085 342 29279ft 427kts
22-Jan-16 21:54 34.490948 -117.276427 2 29253ft 443kts
22-Jan-16 21:55 34.591610 -117.183334 45 29270ft 473kts
22-Jan-16 21:56 34.672507 -117.056450 49 29277ft 474kts
22-Jan-16 21:57 34.751241 -116.927331 49 29275ft 474kts
22-Jan-16 21:58 34.816695 -116.820158 49 29271ft 474kts
22-Jan-16 21:59 34.895006 -116.690476 49 29270ft 474kts
22-Jan-16 22:00 34.988272 -116.545191 40 28730ft 438kts
22-Jan-16 22:01 35.058840 -116.458177 40 26270ft 425kts
22-Jan-16 22:02 35.139977 -116.356832 40 23774ft 405kts
22-Jan-16 22:03 35.218780 -116.257937 40 23184ft 411kts
22-Jan-16 22:04 35.298068 -116.158072 40 20584ft 392kts
22-Jan-16 22:05 35.373268 -116.063426 39 19094ft 386kts
22-Jan-16 22:06 35.447744 -115.969530 39 17518ft 380kts
22-Jan-16 22:07 35.520889 -115.877185 40 16107ft 373kts
22-Jan-16 22:08 35.592601 -115.785920 41 14726ft 367kts
22-Jan-16 22:09 35.663063 -115.695984 41 13365ft 357kts
22-Jan-16 22:10 35.728679 -115.612104 41 13130ft 333kts
22-Jan-16 22:11 35.779562 -115.516176 62 13128ft 338kts
22-Jan-16 22:12 35.820315 -115.412878 62 11865ft 330kts
22-Jan-16 22:13 35.860809 -115.314456 62 10473ft 312kts
22-Jan-16 22:14 35.899294 -115.224925 57 9820ft 274kts
22-Jan-16 22:15 35.966839 -115.221933 336 7061ft 245kts
22-Jan-16 22:16 36.020902 -115.204747 68 4904ft 213kts
22-Jan-16 22:17 36.063906 -115.174491 29 2792ft 180kts
22-Jan-16 22:18 36.109832 -115.148087 23 4233ft 175kts
22-Jan-16 22:19 36.127213 -115.102448 116 3756ft 170kts
22-Jan-16 22:20 36.087527 -115.093480 197 3565ft 163kts
22-Jan-16 22:21 36.045690 -115.112204 202 3919ft 163kts
22-Jan-16 22:22 36.015537 -115.148708 266 3857ft 163kts
22-Jan-16 22:23 36.043336 -115.181917 3 2991ft 149kts
22-Jan-16 22:24 36.078944 -115.164872 27 2197ft 123kts
22-Jan-16 22:25 36.087648 -115.158382 108 2189ft 0kts
22-Jan-16 22:26 36.083681 -115.156137 155 2189ft 25kts
22-Jan-16 22:27 36.081684 -115.151223 25 2189ft 6kts
22-Jan-16 22:28 36.082175 -115.151058 14 2189ft 0kts
22-Jan-16 22:29 36.082175 -115.151058 14 2189ft 0kts
22-Jan-16 22:30 36.082175 -115.151058 14 2189ft 0kts

Navigation Log

Ident Type
1. KSAN Airport
2. MELDY Fix
3. PEBLE Fix
4. SXC Navaid
5. LAX Navaid
6. DAG Navaid
7. MISEN Fix
8. CLARR Fix
9. SKEBR Fix
10. KEPEC Fix
11. IPUMY Fix
12. NIPZO Fix
13. SUNST Fix
14. KIMME Fix
15. CHIPZ Fix
16. POKRR Fix
17. PRINO Fix
18. KLAS Airport